sensor_id;sensor_type;location;lat;lon;timestamp;temperature;humidity
1381;DHT22;684;48.342;10.096;2023-06-22T00:01:17;21.50;36.30
1381;DHT22;684;48.342;10.096;2023-06-22T00:03:44;21.50;36.40
1381;DHT22;684;48.342;10.096;2023-06-22T00:06:12;21.50;36.10
1381;DHT22;684;48.342;10.096;2023-06-22T00:08:39;21.40;36.00
1381;DHT22;684;48.342;10.096;2023-06-22T00:11:06;21.40;36.40
1381;DHT22;684;48.342;10.096;2023-06-22T00:13:34;21.40;36.70
1381;DHT22;684;48.342;10.096;2023-06-22T00:16:01;21.40;36.50
1381;DHT22;684;48.342;10.096;2023-06-22T00:18:28;21.40;36.50
1381;DHT22;684;48.342;10.096;2023-06-22T00:20:56;21.30;36.50
1381;DHT22;684;48.342;10.096;2023-06-22T00:23:24;21.30;36.50
1381;DHT22;684;48.342;10.096;2023-06-22T00:25:51;21.30;36.60
1381;DHT22;684;48.342;10.096;2023-06-22T00:28:18;21.30;36.80
1381;DHT22;684;48.342;10.096;2023-06-22T00:30:46;21.20;36.80
1381;DHT22;684;48.342;10.096;2023-06-22T00:33:13;21.20;37.00
1381;DHT22;684;48.342;10.096;2023-06-22T00:35:41;21.20;37.00
1381;DHT22;684;48.342;10.096;2023-06-22T00:38:08;21.10;37.10
1381;DHT22;684;48.342;10.096;2023-06-22T00:40:35;21.10;37.60
1381;DHT22;684;48.342;10.096;2023-06-22T00:43:02;21.10;37.40
1381;DHT22;684;48.342;10.096;2023-06-22T00:45:30;21.10;37.60
1381;DHT22;684;48.342;10.096;2023-06-22T00:47:59;21.00;38.00
1381;DHT22;684;48.342;10.096;2023-06-22T00:50:27;21.00;38.30
1381;DHT22;684;48.342;10.096;2023-06-22T00:53:00;21.00;38.40
1381;DHT22;684;48.342;10.096;2023-06-22T00:55:28;21.00;38.50
1381;DHT22;684;48.342;10.096;2023-06-22T00:57:54;21.00;38.20
1381;DHT22;684;48.342;10.096;2023-06-22T01:00:23;21.00;38.60
1381;DHT22;684;48.342;10.096;2023-06-22T01:02:50;20.90;39.00
1381;DHT22;684;48.342;10.096;2023-06-22T01:05:19;21.00;38.40
1381;DHT22;684;48.342;10.096;2023-06-22T01:07:56;21.00;38.50
1381;DHT22;684;48.342;10.096;2023-06-22T01:10:30;20.90;38.60
1381;DHT22;684;48.342;10.096;2023-06-22T01:13:02;20.90;38.60
1381;DHT22;684;48.342;10.096;2023-06-22T01:15:35;20.90;38.60
1381;DHT22;684;48.342;10.096;2023-06-22T01:18:04;20.90;39.00
1381;DHT22;684;48.342;10.096;2023-06-22T01:20:34;20.90;39.30
1381;DHT22;684;48.342;10.096;2023-06-22T01:23:09;20.90;39.40
1381;DHT22;684;48.342;10.096;2023-06-22T01:25:43;20.80;39.20
1381;DHT22;684;48.342;10.096;2023-06-22T01:28:23;20.80;39.30
1381;DHT22;684;48.342;10.096;2023-06-22T01:30:52;20.80;39.40
1381;DHT22;684;48.342;10.096;2023-06-22T01:33:33;20.80;39.50
1381;DHT22;684;48.342;10.096;2023-06-22T01:36:01;20.70;39.40
1381;DHT22;684;48.342;10.096;2023-06-22T01:38:29;20.80;39.10
1381;DHT22;684;48.342;10.096;2023-06-22T01:40:57;20.70;39.60
1381;DHT22;684;48.342;10.096;2023-06-22T01:43:26;20.70;39.60
1381;DHT22;684;48.342;10.096;2023-06-22T01:45:55;20.70;39.60
1381;DHT22;684;48.342;10.096;2023-06-22T01:48:22;20.70;39.60
1381;DHT22;684;48.342;10.096;2023-06-22T01:50:51;20.70;39.60
1381;DHT22;684;48.342;10.096;2023-06-22T01:53:18;20.70;39.60
1381;DHT22;684;48.342;10.096;2023-06-22T01:55:46;20.70;39.80
1381;DHT22;684;48.342;10.096;2023-06-22T01:58:13;20.70;39.90
1381;DHT22;684;48.342;10.096;2023-06-22T02:00:47;20.60;39.70
1381;DHT22;684;48.342;10.096;2023-06-22T02:03:20;20.60;39.80
1381;DHT22;684;48.342;10.096;2023-06-22T02:05:51;20.60;39.60
1381;DHT22;684;48.342;10.096;2023-06-22T02:08:21;20.60;39.90
1381;DHT22;684;48.342;10.096;2023-06-22T02:10:49;20.60;40.00
1381;DHT22;684;48.342;10.096;2023-06-22T02:13:17;20.60;39.90
1381;DHT22;684;48.342;10.096;2023-06-22T02:15:45;20.50;39.80
1381;DHT22;684;48.342;10.096;2023-06-22T02:18:12;20.50;39.80
1381;DHT22;684;48.342;10.096;2023-06-22T02:20:41;20.50;40.10
1381;DHT22;684;48.342;10.096;2023-06-22T02:23:08;20.50;40.10
1381;DHT22;684;48.342;10.096;2023-06-22T02:25:35;20.50;40.20
1381;DHT22;684;48.342;10.096;2023-06-22T02:28:02;20.40;40.00
1381;DHT22;684;48.342;10.096;2023-06-22T02:30:30;20.40;40.10
1381;DHT22;684;48.342;10.096;2023-06-22T02:32:57;20.40;39.80
1381;DHT22;684;48.342;10.096;2023-06-22T02:35:25;20.40;40.20
1381;DHT22;684;48.342;10.096;2023-06-22T02:37:53;20.40;40.60
1381;DHT22;684;48.342;10.096;2023-06-22T02:40:20;20.30;40.30
1381;DHT22;684;48.342;10.096;2023-06-22T02:42:46;20.30;40.30
1381;DHT22;684;48.342;10.096;2023-06-22T02:45:14;20.30;40.20
1381;DHT22;684;48.342;10.096;2023-06-22T02:47:40;20.30;40.40
1381;DHT22;684;48.342;10.096;2023-06-22T02:50:08;20.30;40.40
1381;DHT22;684;48.342;10.096;2023-06-22T02:52:34;20.30;40.50
1381;DHT22;684;48.342;10.096;2023-06-22T02:55:03;20.20;40.50
1381;DHT22;684;48.342;10.096;2023-06-22T02:57:30;20.20;40.70
1381;DHT22;684;48.342;10.096;2023-06-22T02:59:56;20.20;41.40
1381;DHT22;684;48.342;10.096;2023-06-22T03:02:23;20.20;40.50
1381;DHT22;684;48.342;10.096;2023-06-22T03:04:51;20.20;40.60
1381;DHT22;684;48.342;10.096;2023-06-22T03:07:19;20.20;40.60
1381;DHT22;684;48.342;10.096;2023-06-22T03:09:45;20.20;40.70
1381;DHT22;684;48.342;10.096;2023-06-22T03:12:14;20.20;40.50
1381;DHT22;684;48.342;10.096;2023-06-22T03:14:40;20.20;40.70
1381;DHT22;684;48.342;10.096;2023-06-22T03:17:07;20.20;40.50
1381;DHT22;684;48.342;10.096;2023-06-22T03:19:34;20.20;40.30
1381;DHT22;684;48.342;10.096;2023-06-22T03:22:00;20.20;40.20
1381;DHT22;684;48.342;10.096;2023-06-22T03:24:27;20.20;40.70
1381;DHT22;684;48.342;10.096;2023-06-22T03:26:55;20.20;40.90
1381;DHT22;684;48.342;10.096;2023-06-22T03:29:23;20.10;41.20
1381;DHT22;684;48.342;10.096;2023-06-22T03:31:50;20.10;41.50
1381;DHT22;684;48.342;10.096;2023-06-22T03:34:17;20.10;41.30
1381;DHT22;684;48.342;10.096;2023-06-22T03:36:44;20.10;41.40
1381;DHT22;684;48.342;10.096;2023-06-22T03:39:11;20.10;41.40
1381;DHT22;684;48.342;10.096;2023-06-22T03:41:38;20.10;41.40
1381;DHT22;684;48.342;10.096;2023-06-22T03:44:05;20.00;41.20
1381;DHT22;684;48.342;10.096;2023-06-22T03:46:33;20.00;41.30
1381;DHT22;684;48.342;10.096;2023-06-22T03:49:00;20.00;41.70
1381;DHT22;684;48.342;10.096;2023-06-22T03:51:28;20.00;41.70
1381;DHT22;684;48.342;10.096;2023-06-22T03:53:55;20.00;41.90
1381;DHT22;684;48.342;10.096;2023-06-22T03:56:22;20.00;41.90
1381;DHT22;684;48.342;10.096;2023-06-22T03:58:49;20.10;42.00
1381;DHT22;684;48.342;10.096;2023-06-22T04:01:16;20.10;42.10
1381;DHT22;684;48.342;10.096;2023-06-22T04:03:44;20.10;42.00
1381;DHT22;684;48.342;10.096;2023-06-22T04:06:13;20.10;41.90
1381;DHT22;684;48.342;10.096;2023-06-22T04:08:40;20.20;41.60
1381;DHT22;684;48.342;10.096;2023-06-22T04:11:07;20.30;41.30
1381;DHT22;684;48.342;10.096;2023-06-22T04:13:34;20.30;41.40
1381;DHT22;684;48.342;10.096;2023-06-22T04:16:01;20.30;41.00
1381;DHT22;684;48.342;10.096;2023-06-22T04:18:27;20.30;41.10
1381;DHT22;684;48.342;10.096;2023-06-22T04:20:55;20.40;40.90
1381;DHT22;684;48.342;10.096;2023-06-22T04:23:22;20.40;40.80
1381;DHT22;684;48.342;10.096;2023-06-22T04:25:49;20.40;40.70
1381;DHT22;684;48.342;10.096;2023-06-22T04:28:17;20.50;40.60
1381;DHT22;684;48.342;10.096;2023-06-22T04:30:43;20.50;40.70
1381;DHT22;684;48.342;10.096;2023-06-22T04:33:13;20.60;40.60
1381;DHT22;684;48.342;10.096;2023-06-22T04:35:40;20.80;40.40
1381;DHT22;684;48.342;10.096;2023-06-22T04:38:09;21.00;40.10
1381;DHT22;684;48.342;10.096;2023-06-22T04:40:38;21.50;39.60
1381;DHT22;684;48.342;10.096;2023-06-22T04:43:05;22.10;37.60
1381;DHT22;684;48.342;10.096;2023-06-22T04:45:32;22.60;35.80
1381;DHT22;684;48.342;10.096;2023-06-22T04:47:59;23.20;33.70
1381;DHT22;684;48.342;10.096;2023-06-22T04:50:25;23.70;32.00
1381;DHT22;684;48.342;10.096;2023-06-22T04:52:52;24.10;30.20
1381;DHT22;684;48.342;10.096;2023-06-22T04:55:20;24.50;28.40
1381;DHT22;684;48.342;10.096;2023-06-22T04:57:48;24.80;27.40
1381;DHT22;684;48.342;10.096;2023-06-22T05:00:15;24.90;26.80
1381;DHT22;684;48.342;10.096;2023-06-22T05:02:44;25.30;25.90
1381;DHT22;684;48.342;10.096;2023-06-22T05:05:12;25.90;23.40
1381;DHT22;684;48.342;10.096;2023-06-22T05:07:41;26.60;21.10
1381;DHT22;684;48.342;10.096;2023-06-22T05:10:09;27.10;19.90
1381;DHT22;684;48.342;10.096;2023-06-22T05:12:38;27.50;18.60
1381;DHT22;684;48.342;10.096;2023-06-22T05:15:07;27.50;17.80
1381;DHT22;684;48.342;10.096;2023-06-22T05:17:34;28.00;17.30
1381;DHT22;684;48.342;10.096;2023-06-22T05:20:01;28.70;15.70
1381;DHT22;684;48.342;10.096;2023-06-22T05:22:28;29.50;14.20
1381;DHT22;684;48.342;10.096;2023-06-22T05:24:54;30.10;12.30
1381;DHT22;684;48.342;10.096;2023-06-22T05:27:21;30.30;10.80
1381;DHT22;684;48.342;10.096;2023-06-22T05:29:49;30.70;9.70
1381;DHT22;684;48.342;10.096;2023-06-22T05:32:16;31.20;9.20
1381;DHT22;684;48.342;10.096;2023-06-22T05:34:42;31.60;7.80
1381;DHT22;684;48.342;10.096;2023-06-22T05:37:09;32.20;7.40
1381;DHT22;684;48.342;10.096;2023-06-22T05:39:36;32.80;5.70
1381;DHT22;684;48.342;10.096;2023-06-22T05:42:05;33.40;4.50
1381;DHT22;684;48.342;10.096;2023-06-22T05:44:32;33.90;3.20
1381;DHT22;684;48.342;10.096;2023-06-22T05:47:00;34.40;2.10
1381;DHT22;684;48.342;10.096;2023-06-22T05:49:28;34.90;1.30
1381;DHT22;684;48.342;10.096;2023-06-22T05:51:58;35.50;1.00
1381;DHT22;684;48.342;10.096;2023-06-22T05:54:24;35.80;1.00
1381;DHT22;684;48.342;10.096;2023-06-22T05:56:51;36.10;1.00
1381;DHT22;684;48.342;10.096;2023-06-22T05:59:18;36.20;1.00
1381;DHT22;684;48.342;10.096;2023-06-22T06:01:45;36.20;1.00
1381;DHT22;684;48.342;10.096;2023-06-22T06:04:16;36.20;1.00
1381;DHT22;684;48.342;10.096;2023-06-22T06:06:43;36.60;1.00
1381;DHT22;684;48.342;10.096;2023-06-22T06:09:10;37.20;1.00
1381;DHT22;684;48.342;10.096;2023-06-22T06:11:37;37.20;1.00
1381;DHT22;684;48.342;10.096;2023-06-22T06:14:04;37.30;1.00
1381;DHT22;684;48.342;10.096;2023-06-22T06:16:31;37.40;1.00
1381;DHT22;684;48.342;10.096;2023-06-22T06:18:58;37.60;1.00
1381;DHT22;684;48.342;10.096;2023-06-22T06:21:26;37.80;1.00
1381;DHT22;684;48.342;10.096;2023-06-22T06:23:53;38.50;1.00
1381;DHT22;684;48.342;10.096;2023-06-22T06:26:22;39.10;1.00
1381;DHT22;684;48.342;10.096;2023-06-22T06:28:53;39.50;1.00
1381;DHT22;684;48.342;10.096;2023-06-22T06:31:20;40.00;1.00
1381;DHT22;684;48.342;10.096;2023-06-22T06:33:48;40.30;1.00
1381;DHT22;684;48.342;10.096;2023-06-22T06:36:14;39.80;1.00
1381;DHT22;684;48.342;10.096;2023-06-22T06:38:43;39.60;1.00
1381;DHT22;684;48.342;10.096;2023-06-22T06:41:10;40.10;1.00
1381;DHT22;684;48.342;10.096;2023-06-22T06:43:36;40.50;1.00
1381;DHT22;684;48.342;10.096;2023-06-22T06:46:03;40.70;1.00
1381;DHT22;684;48.342;10.096;2023-06-22T06:48:30;40.80;1.00
1381;DHT22;684;48.342;10.096;2023-06-22T06:50:56;41.30;1.00
1381;DHT22;684;48.342;10.096;2023-06-22T06:53:23;41.30;1.00
1381;DHT22;684;48.342;10.096;2023-06-22T06:55:51;41.80;1.00
1381;DHT22;684;48.342;10.096;2023-06-22T06:58:18;42.60;1.00
1381;DHT22;684;48.342;10.096;2023-06-22T07:00:45;43.30;1.00
1381;DHT22;684;48.342;10.096;2023-06-22T07:03:11;43.70;1.00
1381;DHT22;684;48.342;10.096;2023-06-22T07:05:38;44.20;1.00
1381;DHT22;684;48.342;10.096;2023-06-22T07:08:05;44.30;1.00
1381;DHT22;684;48.342;10.096;2023-06-22T07:10:31;44.60;1.00
1381;DHT22;684;48.342;10.096;2023-06-22T07:12:59;45.00;1.00
1381;DHT22;684;48.342;10.096;2023-06-22T07:15:26;45.80;1.00
1381;DHT22;684;48.342;10.096;2023-06-22T07:17:53;46.70;1.00
1381;DHT22;684;48.342;10.096;2023-06-22T07:20:20;46.70;1.00
1381;DHT22;684;48.342;10.096;2023-06-22T07:22:46;46.50;1.00
1381;DHT22;684;48.342;10.096;2023-06-22T07:25:13;46.50;1.00
1381;DHT22;684;48.342;10.096;2023-06-22T07:27:44;46.70;1.00
1381;DHT22;684;48.342;10.096;2023-06-22T07:30:13;47.20;1.00
1381;DHT22;684;48.342;10.096;2023-06-22T07:32:40;47.60;1.00
1381;DHT22;684;48.342;10.096;2023-06-22T07:35:07;47.60;1.00
1381;DHT22;684;48.342;10.096;2023-06-22T07:37:34;47.30;1.00
1381;DHT22;684;48.342;10.096;2023-06-22T07:40:01;47.10;1.00
1381;DHT22;684;48.342;10.096;2023-06-22T07:42:31;47.20;1.00
1381;DHT22;684;48.342;10.096;2023-06-22T07:44:59;46.80;1.00
1381;DHT22;684;48.342;10.096;2023-06-22T07:47:27;47.10;1.00
1381;DHT22;684;48.342;10.096;2023-06-22T07:49:54;47.40;1.00
1381;DHT22;684;48.342;10.096;2023-06-22T07:52:23;48.00;1.00
1381;DHT22;684;48.342;10.096;2023-06-22T07:54:50;48.20;1.00
1381;DHT22;684;48.342;10.096;2023-06-22T07:57:16;48.30;1.00
1381;DHT22;684;48.342;10.096;2023-06-22T07:59:44;48.40;1.00
1381;DHT22;684;48.342;10.096;2023-06-22T08:02:10;48.20;1.00
1381;DHT22;684;48.342;10.096;2023-06-22T08:04:39;48.60;1.00
1381;DHT22;684;48.342;10.096;2023-06-22T08:07:06;49.90;1.00
1381;DHT22;684;48.342;10.096;2023-06-22T08:09:33;50.90;1.00
1381;DHT22;684;48.342;10.096;2023-06-22T08:12:00;50.90;1.00
1381;DHT22;684;48.342;10.096;2023-06-22T08:14:27;51.20;1.00
1381;DHT22;684;48.342;10.096;2023-06-22T08:16:54;52.10;1.00
1381;DHT22;684;48.342;10.096;2023-06-22T08:19:21;52.50;1.00
1381;DHT22;684;48.342;10.096;2023-06-22T08:21:49;53.10;1.00
1381;DHT22;684;48.342;10.096;2023-06-22T08:24:15;53.70;1.00
1381;DHT22;684;48.342;10.096;2023-06-22T08:26:42;52.90;1.00
1381;DHT22;684;48.342;10.096;2023-06-22T08:29:09;53.00;1.00
1381;DHT22;684;48.342;10.096;2023-06-22T08:31:36;53.60;1.00
1381;DHT22;684;48.342;10.096;2023-06-22T08:34:03;53.70;1.00
1381;DHT22;684;48.342;10.096;2023-06-22T08:36:29;53.10;1.00
1381;DHT22;684;48.342;10.096;2023-06-22T08:39:04;52.30;1.00
1381;DHT22;684;48.342;10.096;2023-06-22T08:41:31;51.20;1.00
1381;DHT22;684;48.342;10.096;2023-06-22T08:43:57;50.90;1.00
1381;DHT22;684;48.342;10.096;2023-06-22T08:46:24;51.00;1.00
1381;DHT22;684;48.342;10.096;2023-06-22T08:48:55;51.60;1.00
1381;DHT22;684;48.342;10.096;2023-06-22T08:51:23;52.00;1.00
1381;DHT22;684;48.342;10.096;2023-06-22T08:53:50;52.20;1.00
1381;DHT22;684;48.342;10.096;2023-06-22T08:56:18;52.40;1.00
1381;DHT22;684;48.342;10.096;2023-06-22T08:58:45;52.50;1.00
1381;DHT22;684;48.342;10.096;2023-06-22T09:01:11;52.60;1.00
1381;DHT22;684;48.342;10.096;2023-06-22T09:03:40;52.90;1.00
1381;DHT22;684;48.342;10.096;2023-06-22T09:06:07;52.90;1.00
1381;DHT22;684;48.342;10.096;2023-06-22T09:08:34;52.30;1.00
1381;DHT22;684;48.342;10.096;2023-06-22T09:11:01;51.90;1.00
1381;DHT22;684;48.342;10.096;2023-06-22T09:13:30;51.50;1.00
1381;DHT22;684;48.342;10.096;2023-06-22T09:15:57;51.00;1.00
1381;DHT22;684;48.342;10.096;2023-06-22T09:18:24;50.80;1.00
1381;DHT22;684;48.342;10.096;2023-06-22T09:20:51;50.00;1.00
1381;DHT22;684;48.342;10.096;2023-06-22T09:23:17;48.50;1.00
1381;DHT22;684;48.342;10.096;2023-06-22T09:25:44;47.20;1.00
1381;DHT22;684;48.342;10.096;2023-06-22T09:28:13;46.00;1.00
1381;DHT22;684;48.342;10.096;2023-06-22T09:30:42;44.90;1.00
1381;DHT22;684;48.342;10.096;2023-06-22T09:33:09;43.90;1.00
1381;DHT22;684;48.342;10.096;2023-06-22T09:35:36;43.30;1.00
1381;DHT22;684;48.342;10.096;2023-06-22T09:38:02;42.80;1.00
1381;DHT22;684;48.342;10.096;2023-06-22T09:40:29;42.40;1.00
1381;DHT22;684;48.342;10.096;2023-06-22T09:42:58;41.90;1.00
1381;DHT22;684;48.342;10.096;2023-06-22T09:45:24;41.50;1.00
1381;DHT22;684;48.342;10.096;2023-06-22T09:47:52;41.00;1.00
1381;DHT22;684;48.342;10.096;2023-06-22T09:50:19;40.60;1.00
1381;DHT22;684;48.342;10.096;2023-06-22T09:52:46;40.00;1.00
1381;DHT22;684;48.342;10.096;2023-06-22T09:55:16;39.80;1.00
1381;DHT22;684;48.342;10.096;2023-06-22T09:57:42;39.40;1.00
1381;DHT22;684;48.342;10.096;2023-06-22T10:00:10;39.10;1.00
1381;DHT22;684;48.342;10.096;2023-06-22T10:02:38;38.90;1.00
1381;DHT22;684;48.342;10.096;2023-06-22T10:05:07;38.60;1.00
1381;DHT22;684;48.342;10.096;2023-06-22T10:07:34;38.40;1.00
1381;DHT22;684;48.342;10.096;2023-06-22T10:10:05;38.20;1.00
1381;DHT22;684;48.342;10.096;2023-06-22T10:12:32;37.90;1.00
1381;DHT22;684;48.342;10.096;2023-06-22T10:14:59;37.60;1.00
1381;DHT22;684;48.342;10.096;2023-06-22T10:17:26;37.30;1.00
1381;DHT22;684;48.342;10.096;2023-06-22T10:19:52;37.10;1.00
1381;DHT22;684;48.342;10.096;2023-06-22T10:22:20;36.90;1.00
1381;DHT22;684;48.342;10.096;2023-06-22T10:24:47;36.70;1.00
1381;DHT22;684;48.342;10.096;2023-06-22T10:27:14;36.50;1.00
1381;DHT22;684;48.342;10.096;2023-06-22T10:29:41;36.50;1.00
1381;DHT22;684;48.342;10.096;2023-06-22T10:32:08;36.50;1.00
1381;DHT22;684;48.342;10.096;2023-06-22T10:34:35;36.50;1.00
1381;DHT22;684;48.342;10.096;2023-06-22T10:37:01;36.50;1.00
1381;DHT22;684;48.342;10.096;2023-06-22T10:39:29;36.40;1.00
1381;DHT22;684;48.342;10.096;2023-06-22T10:41:56;36.30;1.00
1381;DHT22;684;48.342;10.096;2023-06-22T10:44:23;36.20;1.00
1381;DHT22;684;48.342;10.096;2023-06-22T10:46:50;36.10;1.00
1381;DHT22;684;48.342;10.096;2023-06-22T10:49:16;36.00;1.00
1381;DHT22;684;48.342;10.096;2023-06-22T10:51:43;36.00;1.00
1381;DHT22;684;48.342;10.096;2023-06-22T10:54:10;36.00;1.00
1381;DHT22;684;48.342;10.096;2023-06-22T10:56:40;36.00;1.00
1381;DHT22;684;48.342;10.096;2023-06-22T10:59:07;36.00;1.00
1381;DHT22;684;48.342;10.096;2023-06-22T11:01:34;35.90;1.00
1381;DHT22;684;48.342;10.096;2023-06-22T11:04:00;35.80;1.00
1381;DHT22;684;48.342;10.096;2023-06-22T11:06:27;35.70;1.00
1381;DHT22;684;48.342;10.096;2023-06-22T11:08:54;35.60;1.00
1381;DHT22;684;48.342;10.096;2023-06-22T11:11:21;35.50;1.00
1381;DHT22;684;48.342;10.096;2023-06-22T11:13:49;35.50;1.00
1381;DHT22;684;48.342;10.096;2023-06-22T11:16:15;35.40;1.00
1381;DHT22;684;48.342;10.096;2023-06-22T11:18:42;35.30;1.00
1381;DHT22;684;48.342;10.096;2023-06-22T11:21:09;35.20;1.00
1381;DHT22;684;48.342;10.096;2023-06-22T11:23:35;35.00;1.00
1381;DHT22;684;48.342;10.096;2023-06-22T11:26:02;34.90;1.00
1381;DHT22;684;48.342;10.096;2023-06-22T11:28:29;34.90;1.00
1381;DHT22;684;48.342;10.096;2023-06-22T11:30:57;34.80;1.00
1381;DHT22;684;48.342;10.096;2023-06-22T11:33:24;34.80;1.00
1381;DHT22;684;48.342;10.096;2023-06-22T11:35:51;34.80;1.00
1381;DHT22;684;48.342;10.096;2023-06-22T11:38:17;34.80;1.00
1381;DHT22;684;48.342;10.096;2023-06-22T11:40:44;34.90;1.00
1381;DHT22;684;48.342;10.096;2023-06-22T11:43:11;35.00;1.00
1381;DHT22;684;48.342;10.096;2023-06-22T11:45:37;35.10;1.00
1381;DHT22;684;48.342;10.096;2023-06-22T11:48:05;34.90;1.00
1381;DHT22;684;48.342;10.096;2023-06-22T11:50:32;34.70;1.00
1381;DHT22;684;48.342;10.096;2023-06-22T11:53:01;34.60;1.00
1381;DHT22;684;48.342;10.096;2023-06-22T11:55:28;34.60;1.00
1381;DHT22;684;48.342;10.096;2023-06-22T11:57:55;34.60;1.00
1381;DHT22;684;48.342;10.096;2023-06-22T12:00:24;34.70;1.00
1381;DHT22;684;48.342;10.096;2023-06-22T12:02:51;34.60;1.00
1381;DHT22;684;48.342;10.096;2023-06-22T12:05:19;34.60;1.00
1381;DHT22;684;48.342;10.096;2023-06-22T12:07:47;34.60;1.00
1381;DHT22;684;48.342;10.096;2023-06-22T12:10:13;34.60;1.00
1381;DHT22;684;48.342;10.096;2023-06-22T12:12:40;34.60;1.00
1381;DHT22;684;48.342;10.096;2023-06-22T12:15:09;34.60;1.00
1381;DHT22;684;48.342;10.096;2023-06-22T12:17:36;34.80;1.30
1381;DHT22;684;48.342;10.096;2023-06-22T12:20:03;35.00;2.20
1381;DHT22;684;48.342;10.096;2023-06-22T12:22:32;35.20;2.00
1381;DHT22;684;48.342;10.096;2023-06-22T12:24:59;35.40;1.30
1381;DHT22;684;48.342;10.096;2023-06-22T12:27:25;35.50;1.00
1381;DHT22;684;48.342;10.096;2023-06-22T12:29:52;35.60;1.00
1381;DHT22;684;48.342;10.096;2023-06-22T12:32:19;35.60;1.00
1381;DHT22;684;48.342;10.096;2023-06-22T12:34:45;35.60;1.00
1381;DHT22;684;48.342;10.096;2023-06-22T12:37:12;35.50;1.00
1381;DHT22;684;48.342;10.096;2023-06-22T12:39:41;35.40;1.00
1381;DHT22;684;48.342;10.096;2023-06-22T12:42:08;35.30;1.00
1381;DHT22;684;48.342;10.096;2023-06-22T12:44:35;35.20;1.00
1381;DHT22;684;48.342;10.096;2023-06-22T12:47:01;35.00;1.40
1381;DHT22;684;48.342;10.096;2023-06-22T12:49:28;35.00;2.00
1381;DHT22;684;48.342;10.096;2023-06-22T12:51:55;34.80;2.30
1381;DHT22;684;48.342;10.096;2023-06-22T12:54:21;34.80;2.90
1381;DHT22;684;48.342;10.096;2023-06-22T12:56:49;34.80;1.90
1381;DHT22;684;48.342;10.096;2023-06-22T12:59:16;34.90;1.10
1381;DHT22;684;48.342;10.096;2023-06-22T13:01:43;35.00;1.30
1381;DHT22;684;48.342;10.096;2023-06-22T13:04:10;35.00;1.20
1381;DHT22;684;48.342;10.096;2023-06-22T13:06:40;35.00;1.00
1381;DHT22;684;48.342;10.096;2023-06-22T13:09:06;35.00;1.00
1381;DHT22;684;48.342;10.096;2023-06-22T13:11:34;35.00;1.00
1381;DHT22;684;48.342;10.096;2023-06-22T13:14:02;35.00;1.00
1381;DHT22;684;48.342;10.096;2023-06-22T13:16:29;35.00;1.00
1381;DHT22;684;48.342;10.096;2023-06-22T13:18:55;34.90;1.00
1381;DHT22;684;48.342;10.096;2023-06-22T13:21:22;34.90;1.50
1381;DHT22;684;48.342;10.096;2023-06-22T13:23:49;34.80;2.00
1381;DHT22;684;48.342;10.096;2023-06-22T13:26:16;34.80;1.40
1381;DHT22;684;48.342;10.096;2023-06-22T13:28:43;34.80;1.30
1381;DHT22;684;48.342;10.096;2023-06-22T13:31:13;34.90;1.50
1381;DHT22;684;48.342;10.096;2023-06-22T13:33:40;34.90;2.20
1381;DHT22;684;48.342;10.096;2023-06-22T13:36:07;34.80;1.80
1381;DHT22;684;48.342;10.096;2023-06-22T13:38:34;34.70;2.00
1381;DHT22;684;48.342;10.096;2023-06-22T13:41:04;34.70;2.20
1381;DHT22;684;48.342;10.096;2023-06-22T13:43:30;34.60;2.00
1381;DHT22;684;48.342;10.096;2023-06-22T13:45:57;34.60;2.20
1381;DHT22;684;48.342;10.096;2023-06-22T13:48:25;34.50;2.70
1381;DHT22;684;48.342;10.096;2023-06-22T13:50:54;34.50;2.90
1381;DHT22;684;48.342;10.096;2023-06-22T13:53:21;34.40;3.60
1381;DHT22;684;48.342;10.096;2023-06-22T13:55:47;34.30;3.50
1381;DHT22;684;48.342;10.096;2023-06-22T13:58:14;34.20;3.20
1381;DHT22;684;48.342;10.096;2023-06-22T14:00:41;34.20;3.30
1381;DHT22;684;48.342;10.096;2023-06-22T14:03:07;34.20;3.10
1381;DHT22;684;48.342;10.096;2023-06-22T14:05:35;34.10;2.20
1381;DHT22;684;48.342;10.096;2023-06-22T14:08:02;34.10;2.20
1381;DHT22;684;48.342;10.096;2023-06-22T14:10:29;34.00;2.00
1381;DHT22;684;48.342;10.096;2023-06-22T14:12:55;34.00;1.60
1381;DHT22;684;48.342;10.096;2023-06-22T14:15:22;33.90;1.00
1381;DHT22;684;48.342;10.096;2023-06-22T14:17:49;33.90;1.00
1381;DHT22;684;48.342;10.096;2023-06-22T14:20:15;33.80;1.00
1381;DHT22;684;48.342;10.096;2023-06-22T14:22:44;33.70;1.00
1381;DHT22;684;48.342;10.096;2023-06-22T14:25:10;33.70;1.00
1381;DHT22;684;48.342;10.096;2023-06-22T14:27:37;33.70;1.00
1381;DHT22;684;48.342;10.096;2023-06-22T14:30:05;33.70;1.00
1381;DHT22;684;48.342;10.096;2023-06-22T14:32:32;33.70;1.30
1381;DHT22;684;48.342;10.096;2023-06-22T14:34:58;33.70;1.60
1381;DHT22;684;48.342;10.096;2023-06-22T14:37:25;33.70;1.60
1381;DHT22;684;48.342;10.096;2023-06-22T14:39:53;33.80;2.10
1381;DHT22;684;48.342;10.096;2023-06-22T14:42:20;33.80;1.40
1381;DHT22;684;48.342;10.096;2023-06-22T14:44:47;33.70;1.00
1381;DHT22;684;48.342;10.096;2023-06-22T14:47:14;33.60;1.00
1381;DHT22;684;48.342;10.096;2023-06-22T14:49:43;33.60;1.00
1381;DHT22;684;48.342;10.096;2023-06-22T14:52:10;33.60;1.50
1381;DHT22;684;48.342;10.096;2023-06-22T14:54:37;33.60;1.60
1381;DHT22;684;48.342;10.096;2023-06-22T14:57:05;33.60;1.50
1381;DHT22;684;48.342;10.096;2023-06-22T14:59:32;33.60;1.00
1381;DHT22;684;48.342;10.096;2023-06-22T15:01:58;33.50;1.00
1381;DHT22;684;48.342;10.096;2023-06-22T15:04:25;33.50;1.00
1381;DHT22;684;48.342;10.096;2023-06-22T15:06:57;33.40;1.00
1381;DHT22;684;48.342;10.096;2023-06-22T15:09:23;33.40;1.00
1381;DHT22;684;48.342;10.096;2023-06-22T15:11:50;33.30;1.00
1381;DHT22;684;48.342;10.096;2023-06-22T15:14:18;33.30;1.00
1381;DHT22;684;48.342;10.096;2023-06-22T15:16:45;33.40;1.30
1381;DHT22;684;48.342;10.096;2023-06-22T15:19:11;33.40;1.60
1381;DHT22;684;48.342;10.096;2023-06-22T15:21:39;33.40;1.90
1381;DHT22;684;48.342;10.096;2023-06-22T15:24:05;33.40;2.10
1381;DHT22;684;48.342;10.096;2023-06-22T15:26:32;33.40;2.70
1381;DHT22;684;48.342;10.096;2023-06-22T15:28:59;33.40;2.80
1381;DHT22;684;48.342;10.096;2023-06-22T15:31:27;33.50;2.70
1381;DHT22;684;48.342;10.096;2023-06-22T15:33:54;33.40;2.70
1381;DHT22;684;48.342;10.096;2023-06-22T15:36:21;33.50;2.40
1381;DHT22;684;48.342;10.096;2023-06-22T15:38:48;33.50;2.50
1381;DHT22;684;48.342;10.096;2023-06-22T15:41:14;33.40;3.00
1381;DHT22;684;48.342;10.096;2023-06-22T15:43:41;33.40;4.30
1381;DHT22;684;48.342;10.096;2023-06-22T15:46:08;33.40;3.20
1381;DHT22;684;48.342;10.096;2023-06-22T15:48:36;33.20;3.70
1381;DHT22;684;48.342;10.096;2023-06-22T15:51:03;33.20;3.20
1381;DHT22;684;48.342;10.096;2023-06-22T15:53:30;33.00;2.80
1381;DHT22;684;48.342;10.096;2023-06-22T15:55:56;32.90;2.20
1381;DHT22;684;48.342;10.096;2023-06-22T15:58:24;32.80;2.50
1381;DHT22;684;48.342;10.096;2023-06-22T16:00:50;32.60;3.30
1381;DHT22;684;48.342;10.096;2023-06-22T16:03:17;32.50;4.20
1381;DHT22;684;48.342;10.096;2023-06-22T16:05:45;32.30;5.30
1381;DHT22;684;48.342;10.096;2023-06-22T16:08:12;32.30;5.30
1381;DHT22;684;48.342;10.096;2023-06-22T16:10:39;32.30;5.40
1381;DHT22;684;48.342;10.096;2023-06-22T16:13:06;32.30;6.00